sensor_id;sensor_type;location;lat;lon;timestamp;P1;durP1;ratioP1;P2;durP2;ratioP2
21780;SDS011;52576;53.614;9.894;2023-04-30T00:00:14;15.05;;;4.15;;
21780;SDS011;52576;53.614;9.894;2023-04-30T00:02:17;19.95;;;4.40;;
21780;SDS011;52576;53.614;9.894;2023-04-30T00:04:21;19.75;;;4.93;;
21780;SDS011;52576;53.614;9.894;2023-04-30T00:06:24;16.95;;;4.53;;
21780;SDS011;52576;53.614;9.894;2023-04-30T00:08:29;21.52;;;4.72;;
21780;SDS011;52576;53.614;9.894;2023-04-30T00:10:32;19.23;;;4.72;;
21780;SDS011;52576;53.614;9.894;2023-04-30T00:12:37;21.00;;;4.72;;
21780;SDS011;52576;53.614;9.894;2023-04-30T00:14:40;16.85;;;4.50;;
21780;SDS011;52576;53.614;9.894;2023-04-30T00:16:43;14.27;;;4.47;;
21780;SDS011;52576;53.614;9.894;2023-04-30T00:18:47;16.92;;;4.00;;
21780;SDS011;52576;53.614;9.894;2023-04-30T00:20:50;16.15;;;4.80;;
21780;SDS011;52576;53.614;9.894;2023-04-30T00:22:54;10.68;;;4.03;;
21780;SDS011;52576;53.614;9.894;2023-04-30T00:24:57;15.75;;;4.68;;
21780;SDS011;52576;53.614;9.894;2023-04-30T00:27:00;18.70;;;4.18;;
21780;SDS011;52576;53.614;9.894;2023-04-30T00:29:05;17.42;;;4.32;;
21780;SDS011;52576;53.614;9.894;2023-04-30T00:31:08;15.35;;;4.47;;
21780;SDS011;52576;53.614;9.894;2023-04-30T00:33:12;17.45;;;4.18;;
21780;SDS011;52576;53.614;9.894;2023-04-30T00:35:15;19.70;;;4.80;;
21780;SDS011;52576;53.614;9.894;2023-04-30T00:37:18;15.48;;;4.00;;
21780;SDS011;52576;53.614;9.894;2023-04-30T00:39:21;22.38;;;4.63;;
21780;SDS011;52576;53.614;9.894;2023-04-30T00:41:25;20.52;;;4.68;;
21780;SDS011;52576;53.614;9.894;2023-04-30T00:43:30;18.50;;;4.82;;
21780;SDS011;52576;53.614;9.894;2023-04-30T00:45:36;16.17;;;4.57;;
21780;SDS011;52576;53.614;9.894;2023-04-30T00:47:39;23.98;;;5.03;;
21780;SDS011;52576;53.614;9.894;2023-04-30T00:49:43;24.85;;;5.53;;
21780;SDS011;52576;53.614;9.894;2023-04-30T00:51:46;21.23;;;4.72;;
21780;SDS011;52576;53.614;9.894;2023-04-30T00:53:50;17.85;;;4.45;;
21780;SDS011;52576;53.614;9.894;2023-04-30T00:55:53;20.40;;;4.80;;
21780;SDS011;52576;53.614;9.894;2023-04-30T00:57:59;21.40;;;5.03;;
21780;SDS011;52576;53.614;9.894;2023-04-30T01:00:02;20.80;;;5.10;;
21780;SDS011;52576;53.614;9.894;2023-04-30T01:02:08;17.10;;;4.57;;
21780;SDS011;52576;53.614;9.894;2023-04-30T01:04:13;21.00;;;5.13;;
21780;SDS011;52576;53.614;9.894;2023-04-30T01:06:16;18.35;;;5.28;;
21780;SDS011;52576;53.614;9.894;2023-04-30T01:08:20;24.52;;;4.80;;
21780;SDS011;52576;53.614;9.894;2023-04-30T01:10:24;17.20;;;4.68;;
21780;SDS011;52576;53.614;9.894;2023-04-30T01:12:35;10.98;;;4.40;;
21780;SDS011;52576;53.614;9.894;2023-04-30T01:14:44;21.38;;;4.43;;
21780;SDS011;52576;53.614;9.894;2023-04-30T01:17:01;12.95;;;4.43;;
21780;SDS011;52576;53.614;9.894;2023-04-30T01:19:14;15.23;;;4.88;;
21780;SDS011;52576;53.614;9.894;2023-04-30T01:21:31;19.38;;;5.22;;
21780;SDS011;52576;53.614;9.894;2023-04-30T01:23:40;16.58;;;5.15;;
21780;SDS011;52576;53.614;9.894;2023-04-30T01:26:06;16.42;;;4.65;;
21780;SDS011;52576;53.614;9.894;2023-04-30T01:28:17;15.15;;;5.10;;
21780;SDS011;52576;53.614;9.894;2023-04-30T01:30:21;14.35;;;4.43;;
21780;SDS011;52576;53.614;9.894;2023-04-30T01:32:26;16.42;;;5.18;;
21780;SDS011;52576;53.614;9.894;2023-04-30T01:34:29;20.77;;;5.03;;
21780;SDS011;52576;53.614;9.894;2023-04-30T01:36:34;18.77;;;4.70;;
21780;SDS011;52576;53.614;9.894;2023-04-30T01:38:49;17.08;;;4.72;;
21780;SDS011;52576;53.614;9.894;2023-04-30T01:41:06;22.30;;;5.00;;
21780;SDS011;52576;53.614;9.894;2023-04-30T01:43:16;13.13;;;4.88;;
21780;SDS011;52576;53.614;9.894;2023-04-30T01:45:38;14.32;;;4.70;;
21780;SDS011;52576;53.614;9.894;2023-04-30T01:47:51;16.60;;;5.03;;
21780;SDS011;52576;53.614;9.894;2023-04-30T01:50:02;19.23;;;4.90;;
21780;SDS011;52576;53.614;9.894;2023-04-30T01:52:15;17.75;;;4.75;;
21780;SDS011;52576;53.614;9.894;2023-04-30T01:54:23;20.27;;;5.53;;
21780;SDS011;52576;53.614;9.894;2023-04-30T01:56:35;11.65;;;4.80;;
21780;SDS011;52576;53.614;9.894;2023-04-30T01:58:43;14.10;;;5.00;;
21780;SDS011;52576;53.614;9.894;2023-04-30T02:00:49;20.70;;;5.38;;
21780;SDS011;52576;53.614;9.894;2023-04-30T02:02:54;11.20;;;4.82;;
21780;SDS011;52576;53.614;9.894;2023-04-30T02:04:57;17.90;;;4.63;;
21780;SDS011;52576;53.614;9.894;2023-04-30T02:07:00;20.45;;;5.30;;
21780;SDS011;52576;53.614;9.894;2023-04-30T02:09:05;19.38;;;5.20;;
21780;SDS011;52576;53.614;9.894;2023-04-30T02:11:08;20.80;;;5.80;;
21780;SDS011;52576;53.614;9.894;2023-04-30T02:13:11;16.95;;;5.38;;
21780;SDS011;52576;53.614;9.894;2023-04-30T02:15:16;29.08;;;5.60;;
21780;SDS011;52576;53.614;9.894;2023-04-30T02:17:19;13.68;;;4.70;;
21780;SDS011;52576;53.614;9.894;2023-04-30T02:19:22;16.75;;;5.47;;
21780;SDS011;52576;53.614;9.894;2023-04-30T02:21:27;15.55;;;5.80;;
21780;SDS011;52576;53.614;9.894;2023-04-30T02:23:30;12.95;;;4.80;;
21780;SDS011;52576;53.614;9.894;2023-04-30T02:25:33;16.60;;;5.15;;
21780;SDS011;52576;53.614;9.894;2023-04-30T02:27:38;17.65;;;5.47;;
21780;SDS011;52576;53.614;9.894;2023-04-30T02:29:43;19.10;;;5.45;;
21780;SDS011;52576;53.614;9.894;2023-04-30T02:31:48;18.13;;;5.60;;
21780;SDS011;52576;53.614;9.894;2023-04-30T02:33:51;20.20;;;5.40;;
21780;SDS011;52576;53.614;9.894;2023-04-30T02:35:55;20.98;;;6.10;;
21780;SDS011;52576;53.614;9.894;2023-04-30T02:37:59;14.70;;;5.45;;
21780;SDS011;52576;53.614;9.894;2023-04-30T02:40:02;21.30;;;5.40;;
21780;SDS011;52576;53.614;9.894;2023-04-30T02:42:07;13.85;;;5.43;;
21780;SDS011;52576;53.614;9.894;2023-04-30T02:44:10;19.40;;;5.65;;
21780;SDS011;52576;53.614;9.894;2023-04-30T02:46:14;15.63;;;6.45;;
21780;SDS011;52576;53.614;9.894;2023-04-30T02:48:18;20.80;;;6.13;;
21780;SDS011;52576;53.614;9.894;2023-04-30T02:50:21;25.73;;;6.25;;
21780;SDS011;52576;53.614;9.894;2023-04-30T02:52:25;15.98;;;5.70;;
21780;SDS011;52576;53.614;9.894;2023-04-30T02:54:28;13.70;;;5.45;;
21780;SDS011;52576;53.614;9.894;2023-04-30T02:56:31;17.20;;;6.00;;
21780;SDS011;52576;53.614;9.894;2023-04-30T02:58:35;16.65;;;5.40;;
21780;SDS011;52576;53.614;9.894;2023-04-30T03:00:38;16.58;;;5.88;;
21780;SDS011;52576;53.614;9.894;2023-04-30T03:02:41;16.80;;;5.50;;
21780;SDS011;52576;53.614;9.894;2023-04-30T03:04:46;15.43;;;5.68;;
21780;SDS011;52576;53.614;9.894;2023-04-30T03:06:49;17.23;;;5.38;;
21780;SDS011;52576;53.614;9.894;2023-04-30T03:08:52;21.80;;;5.97;;
21780;SDS011;52576;53.614;9.894;2023-04-30T03:10:56;21.05;;;6.30;;
21780;SDS011;52576;53.614;9.894;2023-04-30T03:12:59;18.80;;;5.97;;
21780;SDS011;52576;53.614;9.894;2023-04-30T03:15:03;19.02;;;6.10;;
21780;SDS011;52576;53.614;9.894;2023-04-30T03:17:07;21.67;;;5.72;;
21780;SDS011;52576;53.614;9.894;2023-04-30T03:19:10;16.08;;;5.88;;
21780;SDS011;52576;53.614;9.894;2023-04-30T03:21:15;16.98;;;5.82;;
21780;SDS011;52576;53.614;9.894;2023-04-30T03:23:18;17.20;;;6.25;;
21780;SDS011;52576;53.614;9.894;2023-04-30T03:25:22;18.38;;;5.45;;
21780;SDS011;52576;53.614;9.894;2023-04-30T03:27:25;24.35;;;6.10;;
21780;SDS011;52576;53.614;9.894;2023-04-30T03:29:28;16.80;;;5.72;;
21780;SDS011;52576;53.614;9.894;2023-04-30T03:31:31;21.23;;;6.32;;
21780;SDS011;52576;53.614;9.894;2023-04-30T03:33:35;20.08;;;5.97;;
21780;SDS011;52576;53.614;9.894;2023-04-30T03:35:38;19.08;;;5.85;;
21780;SDS011;52576;53.614;9.894;2023-04-30T03:37:42;19.42;;;5.85;;
21780;SDS011;52576;53.614;9.894;2023-04-30T03:39:46;15.10;;;5.93;;
21780;SDS011;52576;53.614;9.894;2023-04-30T03:41:49;20.48;;;5.80;;
21780;SDS011;52576;53.614;9.894;2023-04-30T03:43:52;18.13;;;6.22;;
21780;SDS011;52576;53.614;9.894;2023-04-30T03:45:56;13.65;;;5.90;;
21780;SDS011;52576;53.614;9.894;2023-04-30T03:47:59;13.05;;;5.15;;
21780;SDS011;52576;53.614;9.894;2023-04-30T03:50:03;14.68;;;5.75;;
21780;SDS011;52576;53.614;9.894;2023-04-30T03:52:06;17.10;;;5.57;;
21780;SDS011;52576;53.614;9.894;2023-04-30T03:54:11;18.55;;;6.25;;
21780;SDS011;52576;53.614;9.894;2023-04-30T03:56:14;22.98;;;6.03;;
21780;SDS011;52576;53.614;9.894;2023-04-30T03:58:18;18.17;;;5.82;;
21780;SDS011;52576;53.614;9.894;2023-04-30T04:00:21;13.60;;;5.30;;
21780;SDS011;52576;53.614;9.894;2023-04-30T04:02:26;17.83;;;6.20;;
21780;SDS011;52576;53.614;9.894;2023-04-30T04:04:30;18.33;;;5.88;;
21780;SDS011;52576;53.614;9.894;2023-04-30T04:06:33;14.13;;;5.40;;
21780;SDS011;52576;53.614;9.894;2023-04-30T04:08:37;18.27;;;5.70;;
21780;SDS011;52576;53.614;9.894;2023-04-30T04:10:45;19.48;;;6.05;;
21780;SDS011;52576;53.614;9.894;2023-04-30T04:12:48;16.92;;;5.53;;
21780;SDS011;52576;53.614;9.894;2023-04-30T04:14:52;15.02;;;6.25;;
21780;SDS011;52576;53.614;9.894;2023-04-30T04:16:56;15.95;;;6.40;;
21780;SDS011;52576;53.614;9.894;2023-04-30T04:19:00;19.05;;;6.57;;
21780;SDS011;52576;53.614;9.894;2023-04-30T04:21:05;17.30;;;5.75;;
21780;SDS011;52576;53.614;9.894;2023-04-30T04:23:09;23.92;;;7.03;;
21780;SDS011;52576;53.614;9.894;2023-04-30T04:25:12;12.77;;;5.97;;
21780;SDS011;52576;53.614;9.894;2023-04-30T04:27:20;18.48;;;6.22;;
21780;SDS011;52576;53.614;9.894;2023-04-30T04:29:24;22.90;;;7.00;;
21780;SDS011;52576;53.614;9.894;2023-04-30T04:31:27;18.38;;;6.90;;
21780;SDS011;52576;53.614;9.894;2023-04-30T04:33:30;18.15;;;6.70;;
21780;SDS011;52576;53.614;9.894;2023-04-30T04:35:34;16.77;;;6.75;;
21780;SDS011;52576;53.614;9.894;2023-04-30T04:37:37;20.20;;;6.93;;
21780;SDS011;52576;53.614;9.894;2023-04-30T04:39:40;21.05;;;6.63;;
21780;SDS011;52576;53.614;9.894;2023-04-30T04:41:43;19.95;;;7.32;;
21780;SDS011;52576;53.614;9.894;2023-04-30T04:43:48;15.18;;;6.03;;
21780;SDS011;52576;53.614;9.894;2023-04-30T04:45:52;13.95;;;6.13;;
21780;SDS011;52576;53.614;9.894;2023-04-30T04:47:55;15.13;;;5.90;;
21780;SDS011;52576;53.614;9.894;2023-04-30T04:49:59;19.33;;;7.35;;
21780;SDS011;52576;53.614;9.894;2023-04-30T04:52:02;21.60;;;7.82;;
21780;SDS011;52576;53.614;9.894;2023-04-30T04:54:05;16.02;;;6.78;;
21780;SDS011;52576;53.614;9.894;2023-04-30T04:56:09;18.52;;;7.00;;
21780;SDS011;52576;53.614;9.894;2023-04-30T04:58:12;20.65;;;7.43;;
21780;SDS011;52576;53.614;9.894;2023-04-30T05:00:17;18.67;;;7.65;;
21780;SDS011;52576;53.614;9.894;2023-04-30T05:02:22;15.75;;;7.45;;
21780;SDS011;52576;53.614;9.894;2023-04-30T05:04:26;20.13;;;7.40;;
21780;SDS011;52576;53.614;9.894;2023-04-30T05:06:30;22.13;;;7.70;;
21780;SDS011;52576;53.614;9.894;2023-04-30T05:08:34;20.65;;;8.20;;
21780;SDS011;52576;53.614;9.894;2023-04-30T05:10:37;22.52;;;8.55;;
21780;SDS011;52576;53.614;9.894;2023-04-30T05:12:41;22.45;;;8.15;;
21780;SDS011;52576;53.614;9.894;2023-04-30T05:14:44;19.92;;;8.00;;
21780;SDS011;52576;53.614;9.894;2023-04-30T05:16:49;24.17;;;7.85;;
21780;SDS011;52576;53.614;9.894;2023-04-30T05:18:52;15.52;;;6.95;;
21780;SDS011;52576;53.614;9.894;2023-04-30T05:20:55;19.35;;;7.47;;
21780;SDS011;52576;53.614;9.894;2023-04-30T05:22:59;24.42;;;7.15;;
21780;SDS011;52576;53.614;9.894;2023-04-30T05:25:02;23.45;;;6.85;;
21780;SDS011;52576;53.614;9.894;2023-04-30T05:27:05;17.30;;;6.30;;
21780;SDS011;52576;53.614;9.894;2023-04-30T05:29:08;28.02;;;6.78;;
21780;SDS011;52576;53.614;9.894;2023-04-30T05:31:12;16.85;;;6.72;;
21780;SDS011;52576;53.614;9.894;2023-04-30T05:33:16;19.00;;;6.03;;
21780;SDS011;52576;53.614;9.894;2023-04-30T05:35:20;14.77;;;5.72;;
21780;SDS011;52576;53.614;9.894;2023-04-30T05:37:23;24.70;;;6.32;;
21780;SDS011;52576;53.614;9.894;2023-04-30T05:39:26;14.68;;;5.60;;
21780;SDS011;52576;53.614;9.894;2023-04-30T05:41:29;15.40;;;5.45;;
21780;SDS011;52576;53.614;9.894;2023-04-30T05:43:33;18.88;;;6.10;;
21780;SDS011;52576;53.614;9.894;2023-04-30T05:45:36;14.07;;;5.72;;
21780;SDS011;52576;53.614;9.894;2023-04-30T05:47:39;16.27;;;5.90;;
21780;SDS011;52576;53.614;9.894;2023-04-30T05:49:44;18.00;;;5.53;;
21780;SDS011;52576;53.614;9.894;2023-04-30T05:51:47;16.83;;;5.70;;
21780;SDS011;52576;53.614;9.894;2023-04-30T05:53:50;14.93;;;5.75;;
21780;SDS011;52576;53.614;9.894;2023-04-30T05:55:53;16.73;;;5.07;;
21780;SDS011;52576;53.614;9.894;2023-04-30T05:57:57;12.32;;;5.10;;
21780;SDS011;52576;53.614;9.894;2023-04-30T06:00:00;19.35;;;5.68;;
21780;SDS011;52576;53.614;9.894;2023-04-30T06:02:12;13.07;;;5.32;;
21780;SDS011;52576;53.614;9.894;2023-04-30T06:04:16;19.25;;;4.47;;
21780;SDS011;52576;53.614;9.894;2023-04-30T06:06:20;13.13;;;4.78;;
21780;SDS011;52576;53.614;9.894;2023-04-30T06:08:24;18.95;;;4.32;;
21780;SDS011;52576;53.614;9.894;2023-04-30T06:10:27;11.93;;;4.20;;
21780;SDS011;52576;53.614;9.894;2023-04-30T06:12:31;19.42;;;4.60;;
21780;SDS011;52576;53.614;9.894;2023-04-30T06:14:34;12.85;;;4.10;;
21780;SDS011;52576;53.614;9.894;2023-04-30T06:16:38;15.20;;;3.53;;
21780;SDS011;52576;53.614;9.894;2023-04-30T06:18:41;10.43;;;4.05;;
21780;SDS011;52576;53.614;9.894;2023-04-30T06:20:44;15.07;;;3.90;;
21780;SDS011;52576;53.614;9.894;2023-04-30T06:22:49;13.95;;;3.67;;
21780;SDS011;52576;53.614;9.894;2023-04-30T06:24:52;12.40;;;4.10;;
21780;SDS011;52576;53.614;9.894;2023-04-30T06:26:55;17.80;;;3.75;;
21780;SDS011;52576;53.614;9.894;2023-04-30T06:28:58;19.10;;;3.95;;
21780;SDS011;52576;53.614;9.894;2023-04-30T06:31:02;14.40;;;4.22;;
21780;SDS011;52576;53.614;9.894;2023-04-30T06:33:05;10.98;;;3.00;;
21780;SDS011;52576;53.614;9.894;2023-04-30T06:35:08;11.65;;;3.20;;
21780;SDS011;52576;53.614;9.894;2023-04-30T06:37:11;12.55;;;3.20;;
21780;SDS011;52576;53.614;9.894;2023-04-30T06:39:16;18.02;;;3.30;;
21780;SDS011;52576;53.614;9.894;2023-04-30T06:41:19;11.50;;;3.40;;
21780;SDS011;52576;53.614;9.894;2023-04-30T06:43:22;11.30;;;3.42;;
21780;SDS011;52576;53.614;9.894;2023-04-30T06:45:26;13.43;;;3.25;;
21780;SDS011;52576;53.614;9.894;2023-04-30T06:47:32;13.60;;;3.50;;
21780;SDS011;52576;53.614;9.894;2023-04-30T06:49:36;12.85;;;3.08;;
21780;SDS011;52576;53.614;9.894;2023-04-30T06:51:40;11.60;;;2.95;;
21780;SDS011;52576;53.614;9.894;2023-04-30T06:53:43;11.88;;;3.17;;
21780;SDS011;52576;53.614;9.894;2023-04-30T06:55:47;13.35;;;3.80;;
21780;SDS011;52576;53.614;9.894;2023-04-30T06:57:51;9.15;;;3.15;;
21780;SDS011;52576;53.614;9.894;2023-04-30T07:00:00;8.77;;;3.00;;
21780;SDS011;52576;53.614;9.894;2023-04-30T07:02:07;10.43;;;2.75;;
21780;SDS011;52576;53.614;9.894;2023-04-30T07:04:17;13.65;;;2.85;;
21780;SDS011;52576;53.614;9.894;2023-04-30T07:06:21;9.60;;;3.25;;
21780;SDS011;52576;53.614;9.894;2023-04-30T07:08:26;13.68;;;4.03;;
21780;SDS011;52576;53.614;9.894;2023-04-30T07:10:29;14.15;;;2.85;;
21780;SDS011;52576;53.614;9.894;2023-04-30T07:12:34;14.05;;;3.25;;
21780;SDS011;52576;53.614;9.894;2023-04-30T07:14:38;13.13;;;2.75;;
21780;SDS011;52576;53.614;9.894;2023-04-30T07:16:41;13.40;;;3.15;;
21780;SDS011;52576;53.614;9.894;2023-04-30T07:18:45;11.75;;;2.80;;
21780;SDS011;52576;53.614;9.894;2023-04-30T07:20:49;12.45;;;2.85;;
21780;SDS011;52576;53.614;9.894;2023-04-30T07:22:54;12.20;;;2.42;;
21780;SDS011;52576;53.614;9.894;2023-04-30T07:24:59;11.88;;;3.38;;
21780;SDS011;52576;53.614;9.894;2023-04-30T07:27:03;10.00;;;2.50;;
21780;SDS011;52576;53.614;9.894;2023-04-30T07:29:10;14.23;;;2.85;;
21780;SDS011;52576;53.614;9.894;2023-04-30T07:31:14;11.82;;;3.05;;
21780;SDS011;52576;53.614;9.894;2023-04-30T07:33:17;13.68;;;3.70;;
21780;SDS011;52576;53.614;9.894;2023-04-30T07:35:21;13.95;;;2.80;;
21780;SDS011;52576;53.614;9.894;2023-04-30T07:37:24;9.18;;;2.83;;
21780;SDS011;52576;53.614;9.894;2023-04-30T07:39:27;10.75;;;2.47;;
21780;SDS011;52576;53.614;9.894;2023-04-30T07:41:31;10.45;;;2.42;;
21780;SDS011;52576;53.614;9.894;2023-04-30T07:43:34;10.45;;;2.42;;
21780;SDS011;52576;53.614;9.894;2023-04-30T07:45:40;11.65;;;3.30;;
21780;SDS011;52576;53.614;9.894;2023-04-30T07:47:49;12.43;;;3.13;;
21780;SDS011;52576;53.614;9.894;2023-04-30T07:49:56;10.32;;;2.72;;
21780;SDS011;52576;53.614;9.894;2023-04-30T07:52:08;12.48;;;2.80;;
21780;SDS011;52576;53.614;9.894;2023-04-30T07:54:13;9.93;;;2.60;;
21780;SDS011;52576;53.614;9.894;2023-04-30T07:56:16;11.57;;;2.67;;
21780;SDS011;52576;53.614;9.894;2023-04-30T07:58:19;14.80;;;2.85;;
21780;SDS011;52576;53.614;9.894;2023-04-30T08:00:23;10.75;;;3.10;;
21780;SDS011;52576;53.614;9.894;2023-04-30T08:02:31;13.18;;;2.85;;
21780;SDS011;52576;53.614;9.894;2023-04-30T08:04:38;13.48;;;3.22;;
21780;SDS011;52576;53.614;9.894;2023-04-30T08:06:45;10.32;;;2.58;;
21780;SDS011;52576;53.614;9.894;2023-04-30T08:08:50;12.13;;;2.63;;
21780;SDS011;52576;53.614;9.894;2023-04-30T08:10:58;10.40;;;2.67;;
21780;SDS011;52576;53.614;9.894;2023-04-30T08:13:03;11.43;;;2.78;;
21780;SDS011;52576;53.614;9.894;2023-04-30T08:15:07;10.20;;;2.95;;
21780;SDS011;52576;53.614;9.894;2023-04-30T08:17:12;19.38;;;3.10;;
21780;SDS011;52576;53.614;9.894;2023-04-30T08:19:17;11.13;;;2.70;;
21780;SDS011;52576;53.614;9.894;2023-04-30T08:21:21;13.80;;;2.97;;
21780;SDS011;52576;53.614;9.894;2023-04-30T08:23:26;9.65;;;2.70;;
21780;SDS011;52576;53.614;9.894;2023-04-30T08:25:30;10.98;;;2.63;;
21780;SDS011;52576;53.614;9.894;2023-04-30T08:27:37;10.23;;;2.58;;
21780;SDS011;52576;53.614;9.894;2023-04-30T08:29:44;7.88;;;2.55;;
21780;SDS011;52576;53.614;9.894;2023-04-30T08:31:50;8.88;;;2.45;;
21780;SDS011;52576;53.614;9.894;2023-04-30T08:33:55;10.48;;;2.70;;
21780;SDS011;52576;53.614;9.894;2023-04-30T08:35:59;12.52;;;2.55;;
21780;SDS011;52576;53.614;9.894;2023-04-30T08:38:03;9.27;;;2.92;;
21780;SDS011;52576;53.614;9.894;2023-04-30T08:40:08;14.35;;;3.03;;
21780;SDS011;52576;53.614;9.894;2023-04-30T08:42:13;9.85;;;2.83;;
21780;SDS011;52576;53.614;9.894;2023-04-30T08:44:16;11.10;;;2.90;;
21780;SDS011;52576;53.614;9.894;2023-04-30T08:46:24;8.93;;;2.30;;
21780;SDS011;52576;53.614;9.894;2023-04-30T08:48:27;7.45;;;2.42;;
21780;SDS011;52576;53.614;9.894;2023-04-30T08:50:36;15.63;;;3.40;;
21780;SDS011;52576;53.614;9.894;2023-04-30T08:52:41;8.93;;;3.03;;
21780;SDS011;52576;53.614;9.894;2023-04-30T08:54:46;12.77;;;3.03;;
21780;SDS011;52576;53.614;9.894;2023-04-30T08:56:50;10.52;;;2.42;;
21780;SDS011;52576;53.614;9.894;2023-04-30T08:58:54;11.50;;;3.20;;
21780;SDS011;52576;53.614;9.894;2023-04-30T09:01:03;10.02;;;2.80;;
21780;SDS011;52576;53.614;9.894;2023-04-30T09:03:09;11.30;;;3.08;;
21780;SDS011;52576;53.614;9.894;2023-04-30T09:05:14;13.35;;;3.00;;
21780;SDS011;52576;53.614;9.894;2023-04-30T09:07:18;11.30;;;3.53;;
21780;SDS011;52576;53.614;9.894;2023-04-30T09:09:28;9.57;;;2.70;;
21780;SDS011;52576;53.614;9.894;2023-04-30T09:11:36;6.47;;;2.72;;
21780;SDS011;52576;53.614;9.894;2023-04-30T09:13:40;10.82;;;2.55;;
21780;SDS011;52576;53.614;9.894;2023-04-30T09:15:49;11.75;;;3.10;;
21780;SDS011;52576;53.614;9.894;2023-04-30T09:18:10;8.70;;;2.25;;
21780;SDS011;52576;53.614;9.894;2023-04-30T09:20:15;9.93;;;2.30;;
21780;SDS011;52576;53.614;9.894;2023-04-30T09:22:19;11.38;;;2.75;;
21780;SDS011;52576;53.614;9.894;2023-04-30T09:24:24;16.48;;;2.92;;
21780;SDS011;52576;53.614;9.894;2023-04-30T09:26:31;7.75;;;2.70;;
21780;SDS011;52576;53.614;9.894;2023-04-30T09:28:36;10.57;;;2.75;;
21780;SDS011;52576;53.614;9.894;2023-04-30T09:30:40;14.27;;;2.67;;
21780;SDS011;52576;53.614;9.894;2023-04-30T09:32:53;8.80;;;2.65;;
21780;SDS011;52576;53.614;9.894;2023-04-30T09:34:57;11.98;;;2.95;;
21780;SDS011;52576;53.614;9.894;2023-04-30T09:37:01;8.75;;;2.95;;
21780;SDS011;52576;53.614;9.894;2023-04-30T09:39:06;9.13;;;3.20;;
21780;SDS011;52576;53.614;9.894;2023-04-30T09:41:20;10.27;;;2.90;;
21780;SDS011;52576;53.614;9.894;2023-04-30T09:43:27;8.80;;;2.65;;
21780;SDS011;52576;53.614;9.894;2023-04-30T09:45:40;12.35;;;3.35;;
21780;SDS011;52576;53.614;9.894;2023-04-30T09:47:45;8.65;;;3.00;;
21780;SDS011;52576;53.614;9.894;2023-04-30T09:49:49;12.40;;;3.08;;
21780;SDS011;52576;53.614;9.894;2023-04-30T09:51:54;9.05;;;3.00;;
21780;SDS011;52576;53.614;9.894;2023-04-30T09:54:01;9.73;;;2.53;;
21780;SDS011;52576;53.614;9.894;2023-04-30T09:56:05;9.73;;;3.60;;
21780;SDS011;52576;53.614;9.894;2023-04-30T09:58:10;10.52;;;2.67;;
21780;SDS011;52576;53.614;9.894;2023-04-30T10:00:16;8.65;;;3.03;;
21780;SDS011;52576;53.614;9.894;2023-04-30T10:02:23;9.68;;;3.20;;
21780;SDS011;52576;53.614;9.894;2023-04-30T10:04:28;9.80;;;2.70;;
21780;SDS011;52576;53.614;9.894;2023-04-30T10:06:35;7.70;;;2.60;;
21780;SDS011;52576;53.614;9.894;2023-04-30T10:08:41;9.68;;;2.60;;
21780;SDS011;52576;53.614;9.894;2023-04-30T10:10:48;9.82;;;2.90;;
21780;SDS011;52576;53.614;9.894;2023-04-30T10:12:55;9.43;;;2.92;;
21780;SDS011;52576;53.614;9.894;2023-04-30T10:15:08;11.02;;;2.85;;
21780;SDS011;52576;53.614;9.894;2023-04-30T10:17:18;10.38;;;3.03;;
21780;SDS011;52576;53.614;9.894;2023-04-30T10:19:25;10.30;;;2.65;;
21780;SDS011;52576;53.614;9.894;2023-04-30T10:21:35;8.80;;;2.80;;
21780;SDS011;52576;53.614;9.894;2023-04-30T10:23:42;7.78;;;2.78;;
21780;SDS011;52576;53.614;9.894;2023-04-30T10:25:47;9.13;;;2.40;;
21780;SDS011;52576;53.614;9.894;2023-04-30T10:27:53;9.98;;;2.90;;
21780;SDS011;52576;53.614;9.894;2023-04-30T10:29:57;8.05;;;2.75;;
21780;SDS011;52576;53.614;9.894;2023-04-30T10:32:01;12.15;;;3.83;;
21780;SDS011;52576;53.614;9.894;2023-04-30T10:34:11;7.40;;;2.50;;
21780;SDS011;52576;53.614;9.894;2023-04-30T10:36:23;6.72;;;2.70;;
21780;SDS011;52576;53.614;9.894;2023-04-30T10:38:33;9.73;;;2.80;;
21780;SDS011;52576;53.614;9.894;2023-04-30T10:40:39;7.30;;;2.65;;
21780;SDS011;52576;53.614;9.894;2023-04-30T10:42:44;7.07;;;3.05;;
21780;SDS011;52576;53.614;9.894;2023-04-30T10:44:48;11.27;;;2.90;;
21780;SDS011;52576;53.614;9.894;2023-04-30T10:46:57;9.73;;;2.90;;
21780;SDS011;52576;53.614;9.894;2023-04-30T10:49:01;8.27;;;3.00;;
21780;SDS011;52576;53.614;9.894;2023-04-30T10:51:06;7.72;;;2.78;;
21780;SDS011;52576;53.614;9.894;2023-04-30T10:53:11;11.27;;;3.58;;
21780;SDS011;52576;53.614;9.894;2023-04-30T10:55:16;15.43;;;3.97;;
21780;SDS011;52576;53.614;9.894;2023-04-30T10:57:20;13.63;;;3.53;;
21780;SDS011;52576;53.614;9.894;2023-04-30T10:59:24;12.35;;;4.72;;
21780;SDS011;52576;53.614;9.894;2023-04-30T11:01:31;11.65;;;3.40;;
21780;SDS011;52576;53.614;9.894;2023-04-30T11:04:05;8.80;;;3.53;;
21780;SDS011;52576;53.614;9.894;2023-04-30T11:06:12;9.15;;;3.50;;
21780;SDS011;52576;53.614;9.894;2023-04-30T11:08:16;10.68;;;3.40;;
21780;SDS011;52576;53.614;9.894;2023-04-30T11:10:22;12.88;;;3.17;;
21780;SDS011;52576;53.614;9.894;2023-04-30T11:12:30;7.88;;;3.28;;
21780;SDS011;52576;53.614;9.894;2023-04-30T11:14:33;7.15;;;2.83;;
21780;SDS011;52576;53.614;9.894;2023-04-30T11:16:37;16.35;;;4.82;;
21780;SDS011;52576;53.614;9.894;2023-04-30T11:18:43;9.55;;;4.15;;
21780;SDS011;52576;53.614;9.894;2023-04-30T11:20:48;9.00;;;3.45;;
21780;SDS011;52576;53.614;9.894;2023-04-30T11:23:11;8.65;;;3.45;;
21780;SDS011;52576;53.614;9.894;2023-04-30T11:25:31;6.90;;;3.35;;
21780;SDS011;52576;53.614;9.894;2023-04-30T11:27:42;9.18;;;3.00;;
21780;SDS011;52576;53.614;9.894;2023-04-30T11:29:47;13.32;;;3.03;;
21780;SDS011;52576;53.614;9.894;2023-04-30T11:31:54;12.02;;;3.70;;
21780;SDS011;52576;53.614;9.894;2023-04-30T11:33:58;9.50;;;3.15;;
21780;SDS011;52576;53.614;9.894;2023-04-30T11:36:03;8.98;;;3.63;;
21780;SDS011;52576;53.614;9.894;2023-04-30T11:38:06;11.63;;;3.40;;
21780;SDS011;52576;53.614;9.894;2023-04-30T11:40:13;11.07;;;3.42;;
21780;SDS011;52576;53.614;9.894;2023-04-30T11:42:16;6.78;;;3.45;;
21780;SDS011;52576;53.614;9.894;2023-04-30T11:44:24;7.03;;;3.13;;
21780;SDS011;52576;53.614;9.894;2023-04-30T11:46:28;14.02;;;3.30;;
21780;SDS011;52576;53.614;9.894;2023-04-30T11:48:32;6.95;;;2.58;;
21780;SDS011;52576;53.614;9.894;2023-04-30T11:50:41;9.90;;;3.42;;
21780;SDS011;52576;53.614;9.894;2023-04-30T11:52:47;10.45;;;3.05;;
21780;SDS011;52576;53.614;9.894;2023-04-30T11:54:53;9.60;;;3.42;;
21780;SDS011;52576;53.614;9.894;2023-04-30T11:56:59;11.05;;;3.58;;
21780;SDS011;52576;53.614;9.894;2023-04-30T11:59:10;7.78;;;3.63;;
21780;SDS011;52576;53.614;9.894;2023-04-30T12:01:14;6.28;;;3.10;;
21780;SDS011;52576;53.614;9.894;2023-04-30T12:03:18;9.43;;;3.25;;
21780;SDS011;52576;53.614;9.894;2023-04-30T12:05:23;9.88;;;3.38;;
21780;SDS011;52576;53.614;9.894;2023-04-30T12:07:29;7.75;;;3.00;;
21780;SDS011;52576;53.614;9.894;2023-04-30T12:09:33;11.82;;;3.47;;
21780;SDS011;52576;53.614;9.894;2023-04-30T12:11:54;11.48;;;3.20;;
21780;SDS011;52576;53.614;9.894;2023-04-30T12:14:01;10.55;;;3.00;;
21780;SDS011;52576;53.614;9.894;2023-04-30T12:16:08;8.00;;;2.95;;
21780;SDS011;52576;53.614;9.894;2023-04-30T12:18:12;6.30;;;2.70;;
21780;SDS011;52576;53.614;9.894;2023-04-30T12:20:16;6.32;;;3.10;;
21780;SDS011;52576;53.614;9.894;2023-04-30T12:22:22;7.25;;;2.88;;
21780;SDS011;52576;53.614;9.894;2023-04-30T12:24:26;7.68;;;2.97;;
21780;SDS011;52576;53.614;9.894;2023-04-30T12:26:33;12.38;;;3.72;;